LIZ weather

Loring International Airport
Limestone, Maine, United States

Public forecast

Using degrees Fahrenheit for public forecast. Weather courtesy of forecast.io.

METAR (pilot weather report)

Closest report is Caribou Municipal Airport, 7.2 nm (13.3 km) SW. Retrieved 2019/07/19 14:54 UTC (45 minutes ago):

KCAR 191454Z AUTO VRB06KT 10SM FEW060 23/17 A2975 RMK AO2 SLP075 T02280167 58023

TAF (pilot weather forecast)

Closest forecast is Caribou Municipal Airport, 7.2 nm (13.3 km) SW. Retrieved 2019/07/19 12:22 UTC (3 hours ago):

TAF KCAR 191120Z 1912/2012 17005KT P6SM SCT050 BKN120 FM191600 19008KT P6SM VCSH BKN045 FM191900 20009KT P6SM VCTS BKN035CB FM200100 20005KT P6SM BKN050